Time;durP1;ratioP1;P1;durP2;ratioP2;P2;SDS_P1;SDS_P2;PMS_P1;PMS_P2;Temp;Humidity;BMP_temperature;BMP_pressure;BME280_temperature;BME280_humidity;BME280_pressure;Samples;Min_cycle;Max_cycle;Signal;HPM_P1;HPM_P2
2023/01/30 00:00:51;;;;;;;0.10;0.10;;;7.10;91.30;;;;;;4968364;28;20038;-69
2023/01/30 00:03:17;;;;;;;0.03;0.03;;;7.10;91.20;;;;;;4967555;28;20491;-68
2023/01/30 00:05:43;;;;;;;1.83;1.42;;;7.10;91.30;;;;;;4952222;28;20047;-69
2023/01/30 00:08:08;;;;;;;0.00;0.00;;;7.20;91.30;;;;;;4966838;28;20051;-68
2023/01/30 00:10:34;;;;;;;0.00;0.00;;;7.20;90.90;;;;;;4960664;28;20047;-69
2023/01/30 00:12:59;;;;;;;0.10;0.10;;;7.10;91.10;;;;;;4951489;28;20047;-69
2023/01/30 00:15:25;;;;;;;0.00;0.00;;;7.10;91.20;;;;;;4967499;28;20518;-69
2023/01/30 00:17:50;;;;;;;0.20;0.20;;;7.10;91.30;;;;;;4970912;28;20408;-69
2023/01/30 00:20:16;;;;;;;0.50;0.50;;;7.20;91.00;;;;;;4953555;28;20404;-69
2023/01/30 00:22:41;;;;;;;0.05;0.05;;;7.10;91.10;;;;;;4953484;28;20129;-69
2023/01/30 00:25:07;;;;;;;0.22;0.22;;;7.10;91.50;;;;;;4970463;28;20054;-68
2023/01/30 00:27:33;;;;;;;0.10;0.10;;;7.10;91.70;;;;;;4970437;28;20050;-69
2023/01/30 00:29:58;;;;;;;0.00;0.00;;;7.20;91.60;;;;;;4970594;28;20054;-69
2023/01/30 00:32:25;;;;;;;6.40;3.05;;;7.10;92.00;;;;;;4971444;28;20499;-68
2023/01/30 00:34:51;;;;;;;0.00;0.00;;;7.10;92.10;;;;;;4966688;28;20058;-69
2023/01/30 00:37:16;;;;;;;0.00;0.00;;;6.90;92.60;;;;;;4952113;28;20863;-68
2023/01/30 00:39:42;;;;;;;15.32;4.40;;;7.00;92.80;;;;;;4950967;28;20054;-68
2023/01/30 00:47:37;;;;;;;0.00;0.00;;;6.90;93.50;;;;;;4949974;28;20059;-68
2023/01/30 00:50:03;;;;;;;0.00;0.00;;;6.90;93.50;;;;;;4951156;28;20111;-68
2023/01/30 00:52:29;;;;;;;0.00;0.00;;;6.90;93.50;;;;;;4951079;28;20052;-68
2023/01/30 00:54:54;;;;;;;0.00;0.00;;;6.90;93.60;;;;;;4950848;28;20130;-68
2023/01/30 00:57:20;;;;;;;0.00;0.00;;;6.90;93.60;;;;;;4933859;29;20043;-68
2023/01/30 00:59:45;;;;;;;0.20;0.20;;;6.90;93.70;;;;;;4951022;29;20047;-68
2023/01/30 01:02:11;;;;;;;0.05;0.05;;;6.90;93.70;;;;;;4951905;28;20127;-68
2023/01/30 01:04:42;;;;;;;0.15;0.15;;;6.80;94.00;;;;;;4950860;28;20074;-68
2023/01/30 01:07:12;;;;;;;0.00;0.00;;;6.70;94.10;;;;;;4950697;28;20054;-67
2023/01/30 01:09:38;;;;;;;0.00;0.00;;;6.80;94.30;;;;;;4964366;28;20047;-68
2023/01/30 01:12:04;;;;;;;0.00;0.00;;;6.80;94.20;;;;;;4942152;28;20047;-68
2023/01/30 01:14:30;;;;;;;0.00;0.00;;;6.80;94.50;;;;;;4970307;28;20058;-68
2023/01/30 01:16:55;;;;;;;0.00;0.00;;;6.80;94.50;;;;;;4969960;28;20035;-68
2023/01/30 01:19:21;;;;;;;0.57;0.57;;;6.90;94.50;;;;;;4969861;28;20562;-68
2023/01/30 01:21:47;;;;;;;0.00;0.00;;;6.90;94.40;;;;;;4969999;28;20460;-68
2023/01/30 01:24:14;;;;;;;0.00;0.00;;;6.80;94.40;;;;;;4970265;28;20420;-68
2023/01/30 01:26:40;;;;;;;0.05;0.05;;;6.90;94.60;;;;;;4972328;28;20042;-67
2023/01/30 01:29:10;;;;;;;0.10;0.10;;;6.80;94.60;;;;;;4973115;28;20045;-68
2023/01/30 01:31:35;;;;;;;0.10;0.10;;;6.80;94.60;;;;;;4956538;28;20051;-68
2023/01/30 01:34:01;;;;;;;0.10;0.10;;;6.80;94.60;;;;;;4973922;28;20046;-67
2023/01/30 01:36:26;;;;;;;0.00;0.00;;;6.90;94.60;;;;;;4972692;28;20043;-67
2023/01/30 01:38:52;;;;;;;0.00;0.00;;;6.80;94.70;;;;;;4963101;28;20106;-68
2023/01/30 01:41:17;;;;;;;0.00;0.00;;;6.80;94.70;;;;;;4942359;29;20051;-68
2023/01/30 01:44:05;;;;;;;0.10;0.10;;;6.80;94.70;;;;;;4955029;28;20051;-67
2023/01/30 01:46:48;;;;;;;1.13;1.02;;;6.90;94.60;;;;;;4973770;28;20043;-68
2023/01/30 01:49:27;;;;;;;0.20;0.20;;;6.90;94.50;;;;;;4956440;28;20413;-68
2023/01/30 01:52:11;;;;;;;0.00;0.00;;;6.90;94.50;;;;;;4973500;28;20054;-68
2023/01/30 01:54:47;;;;;;;0.10;0.10;;;6.90;94.50;;;;;;4973519;28;20043;-68
2023/01/30 01:57:38;;;;;;;0.00;0.00;;;6.90;94.60;;;;;;4973354;28;20086;-67
2023/01/30 02:00:14;;;;;;;0.00;0.00;;;7.00;94.60;;;;;;4962416;28;20047;-67
2023/01/30 02:02:44;;;;;;;1.15;1.08;;;7.00;94.50;;;;;;4973162;28;20050;-67
2023/01/30 02:05:11;;;;;;;0.00;0.00;;;6.90;94.50;;;;;;4972510;28;20578;-67
2023/01/30 02:08:02;;;;;;;0.00;0.00;;;7.00;94.60;;;;;;4971146;28;20578;-67
2023/01/30 02:10:41;;;;;;;0.00;0.00;;;7.00;94.70;;;;;;4973194;28;20526;-67
2023/01/30 02:13:06;;;;;;;0.10;0.10;;;7.10;94.60;;;;;;4972977;28;20158;-67
2023/01/30 02:15:32;;;;;;;0.00;0.00;;;7.00;94.60;;;;;;4973008;28;20154;-67
2023/01/30 02:17:58;;;;;;;0.85;0.85;;;6.90;94.80;;;;;;4973001;28;20078;-67
2023/01/30 02:20:35;;;;;;;0.00;0.00;;;6.90;94.80;;;;;;4973035;28;20054;-68
2023/01/30 02:23:22;;;;;;;0.52;0.52;;;7.00;94.80;;;;;;4955163;28;20054;-67
2023/01/30 02:26:12;;;;;;;0.00;0.00;;;7.00;94.70;;;;;;4955609;28;20086;-67
2023/01/30 02:29:06;;;;;;;4.38;1.10;;;7.10;94.50;;;;;;4972797;28;20051;-68
2023/01/30 02:32:06;;;;;;;0.17;0.17;;;7.10;94.40;;;;;;4973151;28;20062;-67
2023/01/30 02:35:00;;;;;;;6.18;1.00;;;7.00;94.30;;;;;;4926742;29;20044;-67
2023/01/30 02:37:30;;;;;;;0.00;0.00;;;7.10;94.30;;;;;;4952322;28;20055;-67
2023/01/30 02:40:10;;;;;;;6.45;3.13;;;7.10;94.00;;;;;;4955196;28;20051;-68
2023/01/30 02:42:57;;;;;;;0.22;0.15;;;7.20;93.90;;;;;;4960581;28;20535;-68
2023/01/30 02:45:29;;;;;;;0.00;0.00;;;7.10;93.80;;;;;;4972418;28;20046;-68
2023/01/30 02:48:22;;;;;;;0.10;0.10;;;7.20;93.80;;;;;;4964513;28;20070;-68
2023/01/30 02:51:18;;;;;;;0.00;0.00;;;7.20;93.60;;;;;;4938289;28;20551;-67
2023/01/30 02:53:46;;;;;;;0.00;0.00;;;7.30;93.50;;;;;;4939781;28;20504;-67
2023/01/30 02:56:12;;;;;;;0.80;0.75;;;7.20;93.30;;;;;;4956762;28;20492;-67
2023/01/30 02:58:45;;;;;;;0.00;0.00;;;7.20;93.20;;;;;;4968928;28;20193;-68
2023/01/30 03:01:28;;;;;;;0.00;0.00;;;7.20;93.10;;;;;;4971980;28;20034;-68
2023/01/30 03:04:26;;;;;;;0.20;0.17;;;7.10;93.10;;;;;;4972160;28;20058;-68
2023/01/30 03:07:11;;;;;;;0.10;0.10;;;7.10;92.50;;;;;;4952805;28;20066;-68
2023/01/30 03:09:47;;;;;;;0.00;0.00;;;7.10;92.70;;;;;;4952406;28;20047;-69
2023/01/30 03:12:38;;;;;;;0.08;0.08;;;7.00;92.40;;;;;;4952725;28;20102;-67
2023/01/30 03:15:16;;;;;;;0.00;0.00;;;7.00;92.40;;;;;;4970257;28;20066;-68
2023/01/30 03:17:45;;;;;;;0.00;0.00;;;6.90;92.10;;;;;;4954575;28;20051;-68
2023/01/30 03:20:13;;;;;;;0.00;0.00;;;6.90;91.60;;;;;;4971440;28;20047;-68
2023/01/30 03:22:38;;;;;;;2.22;2.05;;;7.00;91.60;;;;;;4971923;28;20078;-67
2023/01/30 03:25:04;;;;;;;0.00;0.00;;;6.90;91.10;;;;;;4972101;28;20074;-68
2023/01/30 03:27:31;;;;;;;2.35;1.20;;;6.90;91.20;;;;;;4971360;28;20058;-67
2023/01/30 03:29:57;;;;;;;0.00;0.00;;;6.90;91.10;;;;;;4954243;28;20467;-68
2023/01/30 03:32:23;;;;;;;3.85;2.50;;;7.00;91.40;;;;;;4971788;28;20049;-68
2023/01/30 03:34:49;;;;;;;0.00;0.00;;;7.00;91.20;;;;;;4946638;28;20512;-68
2023/01/30 03:37:14;;;;;;;0.60;0.60;;;7.10;91.00;;;;;;4941617;28;20043;-68
2023/01/30 03:39:40;;;;;;;0.00;0.00;;;7.00;90.70;;;;;;4961338;28;20042;-68
2023/01/30 03:42:06;;;;;;;0.05;0.05;;;7.00;90.60;;;;;;4971239;28;20043;-68
2023/01/30 03:44:31;;;;;;;0.00;0.00;;;7.00;90.70;;;;;;4953430;28;20079;-67
2023/01/30 03:46:57;;;;;;;0.55;0.55;;;7.00;89.90;;;;;;4971419;28;20050;-68
2023/01/30 03:49:23;;;;;;;0.28;0.28;;;6.90;89.20;;;;;;4952059;28;20045;-68
2023/01/30 03:51:48;;;;;;;1.10;1.02;;;6.90;89.10;;;;;;4971034;28;20051;-67
2023/01/30 03:54:14;;;;;;;0.00;0.00;;;6.90;88.60;;;;;;4966532;28;20058;-68
2023/01/30 03:56:39;;;;;;;0.90;0.90;;;6.90;88.50;;;;;;4951607;28;20053;-67
2023/01/30 03:59:05;;;;;;;0.47;0.47;;;6.90;87.60;;;;;;4951805;29;20051;-68
2023/01/30 04:01:30;;;;;;;0.20;0.20;;;6.90;87.80;;;;;;4918831;29;20094;-67
2023/01/30 04:03:56;;;;;;;0.00;0.00;;;6.90;88.00;;;;;;4951869;28;20047;-67
2023/01/30 04:06:22;;;;;;;0.00;0.00;;;6.90;88.50;;;;;;4956416;28;20101;-67
2023/01/30 04:08:50;;;;;;;0.00;0.00;;;6.80;89.30;;;;;;4970918;28;20043;-67
2023/01/30 04:11:16;;;;;;;0.00;0.00;;;6.80;89.70;;;;;;4937759;28;20519;-67
2023/01/30 04:13:42;;;;;;;0.00;0.00;;;6.70;89.90;;;;;;4970789;28;20057;-67
2023/01/30 04:16:36;;;;;;;0.10;0.10;;;6.60;90.30;;;;;;4970805;28;20086;-68
2023/01/30 04:19:02;;;;;;;0.00;0.00;;;6.60;90.40;;;;;;4937603;28;20113;-68
2023/01/30 04:21:28;;;;;;;0.00;0.00;;;6.60;90.40;;;;;;4953378;28;20488;-67
2023/01/30 04:23:53;;;;;;;0.20;0.20;;;6.50;90.50;;;;;;4970809;28;20053;-68
2023/01/30 04:26:19;;;;;;;4.07;2.22;;;6.60;90.20;;;;;;4971219;28;20047;-67
2023/01/30 04:28:44;;;;;;;0.00;0.00;;;6.40;89.90;;;;;;4970731;28;20059;-68
2023/01/30 04:31:10;;;;;;;3.85;1.88;;;6.40;89.50;;;;;;4970519;28;20063;-68
2023/01/30 04:33:38;;;;;;;0.68;0.68;;;6.40;89.40;;;;;;4969076;28;20053;-68
2023/01/30 04:36:05;;;;;;;0.00;0.00;;;6.30;89.20;;;;;;4967787;28;20109;-68
2023/01/30 04:38:32;;;;;;;0.00;0.00;;;6.30;88.80;;;;;;4962547;28;20110;-68
2023/01/30 04:40:58;;;;;;;0.00;0.00;;;6.40;88.20;;;;;;4960859;28;20130;-68
2023/01/30 04:43:26;;;;;;;0.00;0.00;;;6.40;87.60;;;;;;4952243;28;20046;-68
2023/01/30 04:45:52;;;;;;;2.95;2.20;;;6.40;87.40;;;;;;4962777;28;20039;-67
2023/01/30 04:48:20;;;;;;;0.00;0.00;;;6.40;87.30;;;;;;4967313;28;20038;-67
2023/01/30 04:50:51;;;;;;;0.52;0.52;;;6.40;87.20;;;;;;4944186;28;20039;-67
2023/01/30 04:53:17;;;;;;;0.10;0.10;;;6.40;87.20;;;;;;4969213;28;20039;-67
2023/01/30 04:55:43;;;;;;;0.10;0.10;;;6.40;87.00;;;;;;4962768;28;20040;-68
2023/01/30 04:58:09;;;;;;;0.00;0.00;;;6.50;87.00;;;;;;4943748;28;20578;-68
2023/01/30 05:00:34;;;;;;;0.43;0.43;;;6.40;86.30;;;;;;4960144;28;20047;-68
2023/01/30 05:03:00;;;;;;;0.00;0.00;;;6.40;86.40;;;;;;4955766;28;20047;-67
2023/01/30 05:05:27;;;;;;;0.15;0.15;;;6.40;86.20;;;;;;4962815;28;20051;-68
2023/01/30 05:07:52;;;;;;;0.00;0.00;;;6.40;86.10;;;;;;4963840;28;20051;-67
2023/01/30 05:10:18;;;;;;;0.00;0.00;;;6.40;85.90;;;;;;4969408;28;20098;-68
2023/01/30 05:12:44;;;;;;;0.00;0.00;;;6.40;85.90;;;;;;4974457;28;20051;-67
2023/01/30 05:15:11;;;;;;;0.38;0.38;;;6.30;85.90;;;;;;4972865;28;20488;-68
2023/01/30 05:17:37;;;;;;;0.00;0.00;;;6.30;85.90;;;;;;4940323;28;20508;-67
2023/01/30 05:20:05;;;;;;;0.25;0.25;;;6.40;85.60;;;;;;4940286;28;20057;-67
2023/01/30 05:22:31;;;;;;;0.00;0.00;;;6.30;85.30;;;;;;4969917;28;21027;-68
2023/01/30 05:24:56;;;;;;;4.00;2.83;;;6.30;85.10;;;;;;4968739;28;20135;-68
2023/01/30 05:27:22;;;;;;;0.00;0.00;;;6.40;84.00;;;;;;4945122;28;20066;-67
2023/01/30 05:29:47;;;;;;;0.00;0.00;;;6.30;84.10;;;;;;4966578;28;20055;-68
2023/01/30 05:32:14;;;;;;;0.10;0.10;;;6.20;84.10;;;;;;4968367;28;20649;-67
2023/01/30 05:34:40;;;;;;;0.00;0.00;;;6.30;83.70;;;;;;4963871;28;20073;-67
2023/01/30 05:37:05;;;;;;;0.20;0.20;;;6.30;83.50;;;;;;4954791;28;20047;-67
2023/01/30 05:39:31;;;;;;;0.00;0.00;;;6.30;83.60;;;;;;4964901;28;20050;-68
2023/01/30 05:41:57;;;;;;;0.00;0.00;;;6.20;83.70;;;;;;4953934;28;20054;-68
2023/01/30 05:44:22;;;;;;;0.00;0.00;;;6.10;83.80;;;;;;4954769;28;20086;-67
2023/01/30 05:46:48;;;;;;;0.10;0.10;;;6.00;84.00;;;;;;4958931;28;20109;-67
2023/01/30 05:49:14;;;;;;;0.00;0.00;;;6.00;84.00;;;;;;4968536;28;20057;-67
2023/01/30 05:51:39;;;;;;;0.20;0.20;;;6.10;84.00;;;;;;4965597;28;20415;-67
2023/01/30 05:54:05;;;;;;;0.10;0.10;;;6.30;84.00;;;;;;4965773;28;20420;-68
2023/01/30 05:56:32;;;;;;;0.00;0.00;;;6.20;84.10;;;;;;4972267;28;20042;-67
2023/01/30 05:58:58;;;;;;;0.00;0.00;;;6.20;84.20;;;;;;4971464;28;20052;-68
2023/01/30 06:01:25;;;;;;;0.00;0.00;;;6.20;84.40;;;;;;4968318;28;20077;-67
2023/01/30 06:03:51;;;;;;;0.00;0.00;;;6.30;84.40;;;;;;4960301;28;20051;-68
2023/01/30 06:06:16;;;;;;;0.10;0.10;;;6.30;84.10;;;;;;4959926;28;20043;-68
2023/01/30 06:08:42;;;;;;;0.00;0.00;;;6.40;83.70;;;;;;4968696;28;20043;-68
2023/01/30 06:11:11;;;;;;;0.20;0.20;;;6.30;83.30;;;;;;4961032;28;20087;-68
2023/01/30 06:13:37;;;;;;;0.52;0.52;;;6.30;83.30;;;;;;4957101;28;20171;-67
2023/01/30 06:16:04;;;;;;;0.00;0.00;;;6.30;83.00;;;;;;4965288;28;20130;-67
2023/01/30 06:18:29;;;;;;;2.10;1.95;;;6.30;83.00;;;;;;4953581;28;20039;-68
2023/01/30 06:20:55;;;;;;;0.20;0.20;;;6.30;83.00;;;;;;4937091;28;20183;-68
2023/01/30 06:23:22;;;;;;;0.00;0.00;;;6.30;83.00;;;;;;4953491;28;20122;-67
2023/01/30 06:25:49;;;;;;;0.10;0.10;;;6.20;83.00;;;;;;4959602;28;20053;-67
2023/01/30 06:28:16;;;;;;;0.05;0.05;;;6.20;83.50;;;;;;4965343;28;20155;-68
2023/01/30 06:30:41;;;;;;;0.00;0.00;;;6.20;84.00;;;;;;4971338;28;20510;-67
2023/01/30 06:33:07;;;;;;;2.58;2.38;;;6.20;84.00;;;;;;4969936;28;20186;-68
2023/01/30 06:35:33;;;;;;;0.00;0.00;;;6.20;84.10;;;;;;4953917;28;20047;-69
2023/01/30 06:37:59;;;;;;;13.80;3.40;;;6.20;84.20;;;;;;4971309;28;20042;-68
2023/01/30 06:40:25;;;;;;;0.55;0.55;;;6.40;84.30;;;;;;4937671;28;20031;-68
2023/01/30 06:42:50;;;;;;;0.10;0.10;;;6.30;84.40;;;;;;4957628;28;20059;-69
2023/01/30 06:45:18;;;;;;;0.00;0.00;;;6.30;83.70;;;;;;4953669;28;20134;-67
2023/01/30 06:47:51;;;;;;;0.00;0.00;;;6.30;84.20;;;;;;4971784;28;20054;-69
2023/01/30 06:50:19;;;;;;;0.00;0.00;;;6.30;84.00;;;;;;4959794;28;20571;-68
2023/01/30 06:52:46;;;;;;;0.00;0.00;;;6.30;83.70;;;;;;4921449;28;20054;-68
2023/01/30 06:55:15;;;;;;;0.00;0.00;;;6.30;84.00;;;;;;4935341;29;20043;-68
2023/01/30 06:57:41;;;;;;;0.00;0.00;;;6.30;84.30;;;;;;4961471;28;20194;-69
2023/01/30 07:00:09;;;;;;;0.00;0.00;;;6.40;84.20;;;;;;4968778;28;20550;-69
2023/01/30 07:02:35;;;;;;;0.00;0.00;;;6.40;84.20;;;;;;4934127;29;20127;-69
2023/01/30 07:05:02;;;;;;;0.00;0.00;;;6.40;84.20;;;;;;4950761;28;20134;-69
2023/01/30 07:07:28;;;;;;;0.00;0.00;;;6.40;84.10;;;;;;4954864;28;20105;-69
2023/01/30 07:09:54;;;;;;;0.00;0.00;;;6.40;84.10;;;;;;4966090;28;20128;-68
2023/01/30 07:12:19;;;;;;;0.00;0.00;;;6.40;83.80;;;;;;4963863;28;21520;-69
2023/01/30 07:14:45;;;;;;;3.85;1.65;;;6.40;83.60;;;;;;4966351;28;20054;-68
2023/01/30 07:17:11;;;;;;;0.00;0.00;;;6.50;83.10;;;;;;4968240;28;20051;-69
2023/01/30 07:19:37;;;;;;;1.75;1.05;;;6.40;82.80;;;;;;4965805;28;21366;-68
2023/01/30 07:22:03;;;;;;;0.10;0.10;;;6.40;83.20;;;;;;4967460;28;20057;-71
2023/01/30 07:24:29;;;;;;;0.10;0.10;;;6.40;82.90;;;;;;4965894;28;20046;-70
2023/01/30 07:26:55;;;;;;;0.10;0.10;;;6.40;83.10;;;;;;4952683;28;20050;-70
2023/01/30 07:29:21;;;;;;;0.00;0.00;;;6.30;83.90;;;;;;4969096;28;20101;-69
2023/01/30 07:31:46;;;;;;;0.15;0.15;;;6.30;84.20;;;;;;4950931;28;20393;-71
2023/01/30 07:34:12;;;;;;;0.00;0.00;;;6.30;84.30;;;;;;4969300;28;20086;-70
2023/01/30 07:36:37;;;;;;;0.00;0.00;;;6.30;84.30;;;;;;4968788;28;20062;-72
2023/01/30 07:39:04;;;;;;;2.08;1.80;;;6.40;84.00;;;;;;4968814;28;20082;-70
2023/01/30 07:41:29;;;;;;;1.17;0.73;;;6.30;84.20;;;;;;4951520;28;20035;-70
2023/01/30 07:43:55;;;;;;;3.35;2.63;;;6.40;84.00;;;;;;4968879;28;20112;-71
2023/01/30 07:46:20;;;;;;;0.10;0.10;;;6.40;83.50;;;;;;4969139;28;20045;-71
2023/01/30 07:48:46;;;;;;;0.00;0.00;;;6.50;83.30;;;;;;4967144;28;20035;-70
2023/01/30 07:51:12;;;;;;;12.52;4.03;;;6.50;83.60;;;;;;4968973;28;20042;-71
2023/01/30 07:53:37;;;;;;;0.00;0.00;;;6.60;83.50;;;;;;4969028;28;20881;-70
2023/01/30 07:56:07;;;;;;;52.97;1.75;;;6.50;83.60;;;;;;4969193;28;20077;-71
2023/01/30 07:58:33;;;;;;;19.30;1.02;;;6.50;83.40;;;;;;4967606;28;20046;-71
2023/01/30 08:00:58;;;;;;;1.45;1.15;;;6.50;83.50;;;;;;4967387;28;20534;-71
2023/01/30 08:03:24;;;;;;;1.75;1.65;;;6.50;83.20;;;;;;4968718;28;20043;-71
2023/01/30 08:05:49;;;;;;;20.48;1.55;;;6.60;83.40;;;;;;4968944;28;20515;-71
2023/01/30 08:08:15;;;;;;;0.00;0.00;;;6.50;83.50;;;;;;4951461;28;20046;-71
2023/01/30 08:10:41;;;;;;;0.00;0.00;;;6.50;83.50;;;;;;4968283;28;20049;-72
2023/01/30 08:13:06;;;;;;;0.00;0.00;;;6.50;83.60;;;;;;4968689;28;20419;-72
2023/01/30 08:15:32;;;;;;;1.15;1.10;;;6.50;83.50;;;;;;4968745;28;20039;-71
2023/01/30 08:17:58;;;;;;;0.00;0.00;;;6.40;83.70;;;;;;4966388;28;20051;-71
2023/01/30 08:20:25;;;;;;;0.20;0.20;;;6.40;83.60;;;;;;4968296;28;20179;-71
2023/01/30 08:22:51;;;;;;;0.00;0.00;;;6.40;83.90;;;;;;4968052;28;20408;-71
2023/01/30 08:25:17;;;;;;;0.00;0.00;;;6.40;83.80;;;;;;4951476;28;20035;-71
2023/01/30 08:27:42;;;;;;;0.00;0.00;;;6.40;83.80;;;;;;4967291;28;20085;-71
2023/01/30 08:30:09;;;;;;;0.55;0.55;;;6.50;83.50;;;;;;4967890;28;20066;-71
2023/01/30 08:32:35;;;;;;;0.00;0.00;;;6.50;83.40;;;;;;4959202;28;20050;-71
2023/01/30 08:35:01;;;;;;;0.00;0.00;;;6.40;83.70;;;;;;4968026;28;20400;-70
2023/01/30 08:37:26;;;;;;;0.00;0.00;;;6.50;83.70;;;;;;4949670;28;20122;-71
2023/01/30 08:39:52;;;;;;;0.90;0.90;;;6.60;83.30;;;;;;4967631;28;20042;-72
2023/01/30 08:42:18;;;;;;;0.20;0.20;;;6.50;83.50;;;;;;4967952;28;20854;-70
2023/01/30 08:44:43;;;;;;;0.13;0.13;;;6.60;83.50;;;;;;4967575;28;20055;-70
2023/01/30 08:47:09;;;;;;;0.00;0.00;;;6.60;83.10;;;;;;4968164;28;20055;-72
2023/01/30 08:49:34;;;;;;;0.25;0.25;;;6.70;82.80;;;;;;4965754;28;20113;-71
2023/01/30 08:52:00;;;;;;;0.13;0.13;;;6.80;82.60;;;;;;4968404;28;20130;-73
2023/01/30 08:54:25;;;;;;;1.58;1.48;;;6.80;82.20;;;;;;4967074;28;20042;-72
2023/01/30 08:56:51;;;;;;;4.45;4.07;;;6.90;82.30;;;;;;4967605;28;20058;-72
2023/01/30 08:59:17;;;;;;;0.38;0.38;;;6.90;82.30;;;;;;4968005;28;20096;-71
2023/01/30 09:01:43;;;;;;;0.00;0.00;;;6.80;82.60;;;;;;4951310;28;20055;-72
2023/01/30 09:04:08;;;;;;;0.00;0.00;;;6.70;82.60;;;;;;4967678;28;20046;-72
2023/01/30 09:06:34;;;;;;;0.08;0.08;;;6.80;82.70;;;;;;4967349;28;20535;-72
2023/01/30 09:09:00;;;;;;;0.00;0.00;;;6.80;82.80;;;;;;4967048;28;20562;-72
2023/01/30 09:11:25;;;;;;;0.10;0.10;;;6.80;82.60;;;;;;4968092;28;20122;-72
2023/01/30 09:13:51;;;;;;;0.00;0.00;;;6.80;83.00;;;;;;4966938;28;20043;-72
2023/01/30 09:16:16;;;;;;;0.00;0.00;;;7.00;83.20;;;;;;4967658;28;20035;-72
2023/01/30 09:18:43;;;;;;;0.00;0.00;;;6.90;83.50;;;;;;4949780;28;20081;-72
2023/01/30 09:21:10;;;;;;;0.80;0.80;;;7.10;83.30;;;;;;4966314;28;20070;-71
2023/01/30 09:23:36;;;;;;;0.00;0.00;;;7.10;83.40;;;;;;4967916;28;20576;-72
2023/01/30 09:26:02;;;;;;;0.00;0.00;;;7.10;83.50;;;;;;4949564;28;20117;-72
2023/01/30 09:28:28;;;;;;;0.00;0.00;;;7.10;83.40;;;;;;4967739;28;20049;-71
2023/01/30 09:30:59;;;;;;;0.05;0.05;;;7.10;83.90;;;;;;4967104;28;20401;-71
2023/01/30 09:33:25;;;;;;;0.10;0.10;;;7.10;83.10;;;;;;4967834;28;20043;-71
2023/01/30 09:35:51;;;;;;;0.00;0.00;;;7.20;83.00;;;;;;4967590;28;20039;-71
2023/01/30 09:38:17;;;;;;;27.33;1.17;;;7.20;83.10;;;;;;4967964;28;20039;-71
2023/01/30 09:41:22;;;;;;;1.65;1.55;;;7.20;82.50;;;;;;4967103;28;20038;-71
2023/01/30 09:43:52;;;;;;;0.00;0.00;;;7.20;81.90;;;;;;4946531;28;20134;-71
2023/01/30 09:46:58;;;;;;;0.00;0.00;;;7.10;81.90;;;;;;4948076;28;20071;-71
2023/01/30 09:49:36;;;;;;;1.55;0.70;;;7.10;82.40;;;;;;4971266;28;20084;-71
2023/01/30 09:52:24;;;;;;;0.00;0.00;;;7.10;81.90;;;;;;4968701;28;20082;-71
2023/01/30 09:54:52;;;;;;;0.73;0.73;;;7.10;82.00;;;;;;4951714;28;20079;-71
2023/01/30 09:57:24;;;;;;;3.40;1.55;;;7.10;81.60;;;;;;4970746;28;20205;-73
2023/01/30 10:00:11;;;;;;;0.00;0.00;;;7.20;81.50;;;;;;4970825;28;20061;-73
2023/01/30 10:02:52;;;;;;;0.25;0.25;;;7.10;81.20;;;;;;4970174;28;20047;-73
2023/01/30 10:05:18;;;;;;;1.55;1.45;;;7.30;80.60;;;;;;4970667;28;20042;-71
2023/01/30 10:07:53;;;;;;;0.45;0.45;;;7.30;79.80;;;;;;4970425;28;20046;-73
2023/01/30 10:10:39;;;;;;;0.47;0.47;;;7.40;79.60;;;;;;4967204;28;20082;-70
2023/01/30 10:13:34;;;;;;;0.00;0.00;;;7.50;79.60;;;;;;4970210;28;20142;-71
2023/01/30 10:16:18;;;;;;;0.75;0.75;;;7.60;79.80;;;;;;4969596;28;20039;-71
2023/01/30 10:19:12;;;;;;;0.00;0.00;;;7.60;79.90;;;;;;4937149;28;20081;-71
2023/01/30 10:22:05;;;;;;;0.20;0.20;;;7.60;79.60;;;;;;4970459;28;20110;-70
2023/01/30 10:24:50;;;;;;;0.00;0.00;;;7.60;80.00;;;;;;4949925;28;20050;-69
2023/01/30 10:27:17;;;;;;;0.38;0.38;;;7.60;79.80;;;;;;4970905;28;20039;-70
2023/01/30 10:29:57;;;;;;;17.63;3.67;;;7.70;79.60;;;;;;4965891;28;20063;-70
2023/01/30 10:32:34;;;;;;;0.10;0.10;;;7.70;79.80;;;;;;4952076;28;20050;-70
2023/01/30 10:35:06;;;;;;;0.00;0.00;;;7.70;78.80;;;;;;4963876;28;20129;-71
2023/01/30 10:37:46;;;;;;;0.00;0.00;;;7.70;78.60;;;;;;4969587;28;20043;-70
2023/01/30 10:40:33;;;;;;;0.00;0.00;;;7.70;78.40;;;;;;4969763;28;20058;-70
2023/01/30 10:43:18;;;;;;;0.10;0.10;;;7.80;78.10;;;;;;4969687;28;20214;-72
2023/01/30 10:46:12;;;;;;;0.10;0.10;;;7.80;77.70;;;;;;4952072;28;20049;-68
2023/01/30 10:48:50;;;;;;;0.00;0.00;;;7.90;78.50;;;;;;4952158;28;20054;-68
2023/01/30 10:51:27;;;;;;;1.05;0.95;;;7.70;77.40;;;;;;4965925;28;20046;-71
2023/01/30 10:54:03;;;;;;;0.32;0.32;;;7.60;77.20;;;;;;4952470;28;20039;-70
2023/01/30 10:57:02;;;;;;;0.00;0.00;;;7.50;78.50;;;;;;4936704;28;20178;-71
2023/01/30 10:59:42;;;;;;;21.92;2.72;;;7.20;80.30;;;;;;4952174;28;20075;-70
2023/01/30 11:02:24;;;;;;;0.10;0.10;;;7.10;81.30;;;;;;4934295;28;20097;-69
2023/01/30 11:04:58;;;;;;;0.32;0.32;;;6.90;82.90;;;;;;4969324;28;20046;-71
2023/01/30 11:07:24;;;;;;;0.00;0.00;;;6.80;83.70;;;;;;4936369;28;20047;-70
2023/01/30 11:09:50;;;;;;;2.10;1.98;;;6.60;84.80;;;;;;4968205;28;20055;-70
2023/01/30 11:12:16;;;;;;;0.70;0.70;;;6.60;84.80;;;;;;4968550;28;20042;-71
2023/01/30 11:15:03;;;;;;;4.07;3.72;;;6.70;83.50;;;;;;4951934;28;20054;-70
2023/01/30 11:17:44;;;;;;;0.00;0.00;;;6.70;83.40;;;;;;4969229;28;20082;-70
2023/01/30 11:20:15;;;;;;;0.00;0.00;;;6.90;82.40;;;;;;4966621;28;20058;-72
2023/01/30 11:23:11;;;;;;;0.13;0.13;;;7.20;81.00;;;;;;4951982;28;20050;-70
2023/01/30 11:25:49;;;;;;;0.00;0.00;;;7.30;80.60;;;;;;4921592;28;20415;-69
2023/01/30 11:28:18;;;;;;;0.10;0.10;;;7.50;79.60;;;;;;4966941;28;20086;-70
2023/01/30 11:30:51;;;;;;;0.00;0.00;;;7.50;79.20;;;;;;4968664;28;20055;-70
2023/01/30 11:33:20;;;;;;;0.85;0.85;;;7.80;78.40;;;;;;4969130;28;20080;-69
2023/01/30 11:35:57;;;;;;;0.90;0.90;;;7.70;78.80;;;;;;4968191;28;20039;-68
2023/01/30 11:38:26;;;;;;;0.77;0.77;;;7.40;81.70;;;;;;4969132;28;20046;-68
2023/01/30 11:41:19;;;;;;;0.00;0.00;;;6.80;81.80;;;;;;4968680;28;20412;-70
2023/01/30 11:43:44;;;;;;;4.85;1.20;;;6.70;83.00;;;;;;4969717;28;20121;-71
2023/01/30 11:46:13;;;;;;;0.08;0.08;;;6.60;84.60;;;;;;4969156;28;20154;-70
2023/01/30 11:48:53;;;;;;;0.00;0.00;;;6.80;84.60;;;;;;4968964;28;20051;-70
2023/01/30 11:51:22;;;;;;;0.00;0.00;;;6.90;84.60;;;;;;4968251;28;20051;-70
2023/01/30 11:54:31;;;;;;;3.50;3.03;;;6.90;84.40;;;;;;4969357;28;20518;-71
2023/01/30 11:56:57;;;;;;;0.00;0.00;;;6.90;84.40;;;;;;4940770;28;20416;-71
2023/01/30 11:59:42;;;;;;;0.20;0.20;;;7.00;84.20;;;;;;4968710;28;20415;-71
2023/01/30 12:02:32;;;;;;;0.10;0.10;;;7.00;84.00;;;;;;4968965;28;20046;-71
2023/01/30 12:05:03;;;;;;;1.45;1.35;;;6.90;84.00;;;;;;4961699;28;20082;-71
2023/01/30 12:07:31;;;;;;;0.00;0.00;;;6.90;84.20;;;;;;4968188;28;20051;-71
2023/01/30 12:09:58;;;;;;;0.10;0.10;;;6.70;84.00;;;;;;4968148;28;20047;-70
2023/01/30 12:12:42;;;;;;;1.20;1.10;;;6.80;84.00;;;;;;4968197;28;20137;-72
2023/01/30 12:15:21;;;;;;;0.00;0.00;;;6.80;83.80;;;;;;4951320;28;20047;-73
2023/01/30 12:18:12;;;;;;;0.00;0.00;;;6.90;83.50;;;;;;4950914;28;20562;-73
2023/01/30 12:21:23;;;;;;;0.00;0.00;;;6.90;83.50;;;;;;4969090;28;20101;-75
2023/01/30 12:24:08;;;;;;;0.00;0.00;;;7.00;83.40;;;;;;4941431;28;20062;-72
2023/01/30 12:26:39;;;;;;;0.00;0.00;;;7.00;82.90;;;;;;4951170;28;20055;-73
2023/01/30 12:29:14;;;;;;;0.00;0.00;;;7.10;83.10;;;;;;4950053;28;20443;-72
2023/01/30 12:31:53;;;;;;;0.73;0.73;;;7.10;83.60;;;;;;4968852;28;20061;-72
2023/01/30 12:34:20;;;;;;;0.00;0.00;;;7.20;82.90;;;;;;4967935;28;20404;-71
2023/01/30 12:37:17;;;;;;;0.20;0.20;;;7.30;82.60;;;;;;4951365;28;20042;-72
2023/01/30 12:40:04;;;;;;;0.00;0.00;;;7.30;81.70;;;;;;4967457;28;20039;-73
2023/01/30 12:42:55;;;;;;;4.07;1.85;;;7.40;81.80;;;;;;4949169;28;20042;-74
2023/01/30 12:45:27;;;;;;;0.63;0.63;;;7.40;82.10;;;;;;4950562;28;20054;-73
2023/01/30 12:48:33;;;;;;;0.00;0.00;;;7.40;82.50;;;;;;4968171;28;20043;-72
2023/01/30 12:51:36;;;;;;;1.65;0.45;;;7.40;81.90;;;;;;4950712;28;20053;-73
2023/01/30 12:54:12;;;;;;;0.00;0.00;;;7.50;82.10;;;;;;4949532;28;20496;-72
2023/01/30 12:56:52;;;;;;;0.98;0.98;;;7.60;82.20;;;;;;4967581;28;20106;-71
2023/01/30 12:59:31;;;;;;;0.32;0.32;;;7.60;82.10;;;;;;4965906;28;20051;-70
2023/01/30 13:02:20;;;;;;;0.00;0.00;;;7.60;81.90;;;;;;4968425;28;20046;-71
2023/01/30 13:05:02;;;;;;;7.53;1.65;;;7.60;82.10;;;;;;4967200;28;20055;-71
2023/01/30 13:07:45;;;;;;;0.28;0.22;;;7.60;81.60;;;;;;4962502;28;20046;-71
2023/01/30 13:10:35;;;;;;;3.28;1.13;;;7.60;81.40;;;;;;4968132;28;20531;-71
2023/01/30 13:13:23;;;;;;;0.00;0.00;;;7.70;81.50;;;;;;4966784;28;20046;-72
2023/01/30 13:16:23;;;;;;;0.00;0.00;;;7.80;81.10;;;;;;4934421;28;20047;-70
2023/01/30 13:18:58;;;;;;;0.47;0.45;;;7.70;81.50;;;;;;4961801;28;20500;-70
2023/01/30 13:21:45;;;;;;;5.88;4.13;;;7.80;81.30;;;;;;4967254;28;20039;-72
2023/01/30 13:24:27;;;;;;;0.00;0.00;;;7.70;81.10;;;;;;4972201;28;20407;-72
2023/01/30 13:26:57;;;;;;;0.10;0.10;;;7.70;81.00;;;;;;4971795;28;20137;-72